sensor_id;sensor_type;location;lat;lon;timestamp;P1;durP1;ratioP1;P2;durP2;ratioP2
75634;SDS011;64227;48.724;9.104;2023-01-04T00:01:08;8.32;;;4.97;;
75634;SDS011;64227;48.724;9.104;2023-01-04T00:03:35;7.75;;;4.63;;
75634;SDS011;64227;48.724;9.104;2023-01-04T00:06:01;7.60;;;4.15;;
75634;SDS011;64227;48.724;9.104;2023-01-04T00:08:27;8.73;;;4.68;;
75634;SDS011;64227;48.724;9.104;2023-01-04T00:10:59;6.93;;;5.10;;
75634;SDS011;64227;48.724;9.104;2023-01-04T00:13:25;6.35;;;3.53;;
75634;SDS011;64227;48.724;9.104;2023-01-04T00:15:50;6.60;;;3.43;;
75634;SDS011;64227;48.724;9.104;2023-01-04T00:18:16;6.67;;;3.97;;
75634;SDS011;64227;48.724;9.104;2023-01-04T00:20:41;6.13;;;3.30;;
75634;SDS011;64227;48.724;9.104;2023-01-04T00:23:06;6.70;;;3.80;;
75634;SDS011;64227;48.724;9.104;2023-01-04T00:25:32;5.67;;;3.60;;
75634;SDS011;64227;48.724;9.104;2023-01-04T00:27:57;6.57;;;4.00;;
75634;SDS011;64227;48.724;9.104;2023-01-04T00:30:22;8.57;;;4.20;;
75634;SDS011;64227;48.724;9.104;2023-01-04T00:32:47;5.70;;;3.90;;
75634;SDS011;64227;48.724;9.104;2023-01-04T00:35:13;5.97;;;3.65;;
75634;SDS011;64227;48.724;9.104;2023-01-04T00:37:38;7.28;;;4.10;;
75634;SDS011;64227;48.724;9.104;2023-01-04T00:40:03;5.32;;;3.38;;
75634;SDS011;64227;48.724;9.104;2023-01-04T00:42:29;6.22;;;3.72;;
75634;SDS011;64227;48.724;9.104;2023-01-04T00:44:54;6.53;;;3.80;;
75634;SDS011;64227;48.724;9.104;2023-01-04T00:47:20;5.32;;;3.60;;
75634;SDS011;64227;48.724;9.104;2023-01-04T00:49:46;6.40;;;3.92;;
75634;SDS011;64227;48.724;9.104;2023-01-04T00:52:11;6.60;;;3.20;;
75634;SDS011;64227;48.724;9.104;2023-01-04T00:54:36;7.20;;;3.83;;
75634;SDS011;64227;48.724;9.104;2023-01-04T00:57:01;6.70;;;3.60;;
75634;SDS011;64227;48.724;9.104;2023-01-04T00:59:29;6.85;;;4.15;;
75634;SDS011;64227;48.724;9.104;2023-01-04T01:01:54;5.97;;;3.63;;
75634;SDS011;64227;48.724;9.104;2023-01-04T01:04:20;6.28;;;3.83;;
75634;SDS011;64227;48.724;9.104;2023-01-04T01:06:47;7.22;;;3.72;;
75634;SDS011;64227;48.724;9.104;2023-01-04T01:09:12;6.05;;;3.42;;
75634;SDS011;64227;48.724;9.104;2023-01-04T01:11:38;7.10;;;3.42;;
75634;SDS011;64227;48.724;9.104;2023-01-04T01:14:04;7.07;;;3.63;;
75634;SDS011;64227;48.724;9.104;2023-01-04T01:16:30;5.88;;;3.80;;
75634;SDS011;64227;48.724;9.104;2023-01-04T01:18:56;6.70;;;3.40;;
75634;SDS011;64227;48.724;9.104;2023-01-04T01:21:23;5.17;;;3.83;;
75634;SDS011;64227;48.724;9.104;2023-01-04T01:23:50;6.47;;;3.35;;
75634;SDS011;64227;48.724;9.104;2023-01-04T01:26:17;5.30;;;3.03;;
75634;SDS011;64227;48.724;9.104;2023-01-04T01:28:43;6.75;;;3.35;;
75634;SDS011;64227;48.724;9.104;2023-01-04T01:31:14;5.53;;;3.45;;
75634;SDS011;64227;48.724;9.104;2023-01-04T01:33:42;6.18;;;3.45;;
75634;SDS011;64227;48.724;9.104;2023-01-04T01:36:08;5.57;;;3.55;;
75634;SDS011;64227;48.724;9.104;2023-01-04T01:38:35;5.75;;;3.20;;
75634;SDS011;64227;48.724;9.104;2023-01-04T01:41:01;5.25;;;3.22;;
75634;SDS011;64227;48.724;9.104;2023-01-04T01:43:46;9.20;;;3.13;;
75634;SDS011;64227;48.724;9.104;2023-01-04T01:46:14;4.70;;;3.10;;
75634;SDS011;64227;48.724;9.104;2023-01-04T01:48:40;4.82;;;2.88;;
75634;SDS011;64227;48.724;9.104;2023-01-04T01:51:06;5.07;;;3.17;;
75634;SDS011;64227;48.724;9.104;2023-01-04T01:53:34;4.20;;;2.67;;
75634;SDS011;64227;48.724;9.104;2023-01-04T01:56:02;4.15;;;2.65;;
75634;SDS011;64227;48.724;9.104;2023-01-04T01:58:34;5.30;;;3.00;;
75634;SDS011;64227;48.724;9.104;2023-01-04T02:01:03;4.85;;;2.80;;
75634;SDS011;64227;48.724;9.104;2023-01-04T02:03:29;4.80;;;2.63;;
75634;SDS011;64227;48.724;9.104;2023-01-04T02:05:57;4.25;;;2.83;;
75634;SDS011;64227;48.724;9.104;2023-01-04T02:08:25;5.35;;;2.75;;
75634;SDS011;64227;48.724;9.104;2023-01-04T02:10:51;3.97;;;2.40;;
75634;SDS011;64227;48.724;9.104;2023-01-04T02:13:17;4.72;;;2.53;;
75634;SDS011;64227;48.724;9.104;2023-01-04T02:19:20;9.23;;;2.67;;
75634;SDS011;64227;48.724;9.104;2023-01-04T02:24:25;4.00;;;2.55;;
75634;SDS011;64227;48.724;9.104;2023-01-04T02:27:33;6.07;;;3.58;;
75634;SDS011;64227;48.724;9.104;2023-01-04T02:30:20;4.88;;;3.08;;
75634;SDS011;64227;48.724;9.104;2023-01-04T02:33:27;4.18;;;2.55;;
75634;SDS011;64227;48.724;9.104;2023-01-04T02:38:40;4.75;;;2.55;;
75634;SDS011;64227;48.724;9.104;2023-01-04T02:41:13;5.90;;;2.88;;
75634;SDS011;64227;48.724;9.104;2023-01-04T02:43:49;4.28;;;2.80;;
75634;SDS011;64227;48.724;9.104;2023-01-04T02:46:39;4.75;;;3.22;;
75634;SDS011;64227;48.724;9.104;2023-01-04T02:49:07;7.93;;;3.08;;
75634;SDS011;64227;48.724;9.104;2023-01-04T02:51:51;4.63;;;2.42;;
75634;SDS011;64227;48.724;9.104;2023-01-04T02:54:21;3.63;;;2.38;;
75634;SDS011;64227;48.724;9.104;2023-01-04T02:57:12;4.55;;;2.72;;
75634;SDS011;64227;48.724;9.104;2023-01-04T03:06:14;4.72;;;2.75;;
75634;SDS011;64227;48.724;9.104;2023-01-04T03:11:32;4.22;;;2.58;;
75634;SDS011;64227;48.724;9.104;2023-01-04T03:14:22;4.35;;;2.58;;
75634;SDS011;64227;48.724;9.104;2023-01-04T03:16:51;5.28;;;2.85;;
75634;SDS011;64227;48.724;9.104;2023-01-04T03:19:19;4.82;;;2.88;;
75634;SDS011;64227;48.724;9.104;2023-01-04T03:22:05;4.18;;;2.95;;
75634;SDS011;64227;48.724;9.104;2023-01-04T03:24:51;4.78;;;2.72;;
75634;SDS011;64227;48.724;9.104;2023-01-04T03:27:36;4.93;;;2.75;;
75634;SDS011;64227;48.724;9.104;2023-01-04T03:30:37;3.65;;;2.30;;
75634;SDS011;64227;48.724;9.104;2023-01-04T03:33:26;4.40;;;2.78;;
75634;SDS011;64227;48.724;9.104;2023-01-04T03:38:46;3.28;;;2.13;;
75634;SDS011;64227;48.724;9.104;2023-01-04T03:44:42;3.85;;;2.20;;
75634;SDS011;64227;48.724;9.104;2023-01-04T03:47:33;3.83;;;2.00;;
75634;SDS011;64227;48.724;9.104;2023-01-04T03:50:35;2.92;;;1.70;;
75634;SDS011;64227;48.724;9.104;2023-01-04T03:53:04;3.55;;;1.80;;
75634;SDS011;64227;48.724;9.104;2023-01-04T03:55:30;3.00;;;1.77;;
75634;SDS011;64227;48.724;9.104;2023-01-04T03:57:57;2.80;;;2.03;;
75634;SDS011;64227;48.724;9.104;2023-01-04T04:00:23;3.05;;;1.77;;
75634;SDS011;64227;48.724;9.104;2023-01-04T04:02:48;3.88;;;1.73;;
75634;SDS011;64227;48.724;9.104;2023-01-04T04:05:22;2.28;;;1.65;;
75634;SDS011;64227;48.724;9.104;2023-01-04T04:08:06;2.60;;;1.50;;
75634;SDS011;64227;48.724;9.104;2023-01-04T04:10:50;3.42;;;1.73;;
75634;SDS011;64227;48.724;9.104;2023-01-04T04:13:15;2.78;;;1.55;;
75634;SDS011;64227;48.724;9.104;2023-01-04T04:15:40;2.38;;;1.27;;
75634;SDS011;64227;48.724;9.104;2023-01-04T04:18:06;1.63;;;1.30;;
75634;SDS011;64227;48.724;9.104;2023-01-04T04:20:32;2.33;;;1.58;;
75634;SDS011;64227;48.724;9.104;2023-01-04T04:22:57;2.38;;;1.35;;
75634;SDS011;64227;48.724;9.104;2023-01-04T04:25:22;1.40;;;1.10;;
75634;SDS011;64227;48.724;9.104;2023-01-04T04:27:47;1.67;;;1.07;;
75634;SDS011;64227;48.724;9.104;2023-01-04T04:30:13;1.57;;;1.10;;
75634;SDS011;64227;48.724;9.104;2023-01-04T04:32:38;1.50;;;1.00;;
75634;SDS011;64227;48.724;9.104;2023-01-04T04:35:03;1.73;;;1.23;;
75634;SDS011;64227;48.724;9.104;2023-01-04T04:37:29;2.03;;;0.93;;
75634;SDS011;64227;48.724;9.104;2023-01-04T04:39:56;2.17;;;1.15;;
75634;SDS011;64227;48.724;9.104;2023-01-04T04:42:22;2.08;;;0.95;;
75634;SDS011;64227;48.724;9.104;2023-01-04T04:44:47;1.38;;;1.10;;
75634;SDS011;64227;48.724;9.104;2023-01-04T04:47:12;1.58;;;0.80;;
75634;SDS011;64227;48.724;9.104;2023-01-04T04:49:37;1.60;;;0.97;;
75634;SDS011;64227;48.724;9.104;2023-01-04T04:52:03;1.95;;;1.00;;
75634;SDS011;64227;48.724;9.104;2023-01-04T04:54:28;1.10;;;0.90;;
75634;SDS011;64227;48.724;9.104;2023-01-04T04:56:54;1.83;;;0.90;;
75634;SDS011;64227;48.724;9.104;2023-01-04T04:59:19;0.97;;;0.90;;
75634;SDS011;64227;48.724;9.104;2023-01-04T05:01:44;1.25;;;0.93;;
75634;SDS011;64227;48.724;9.104;2023-01-04T05:04:09;1.83;;;1.20;;
75634;SDS011;64227;48.724;9.104;2023-01-04T05:06:40;1.27;;;0.90;;
75634;SDS011;64227;48.724;9.104;2023-01-04T05:09:06;1.00;;;0.85;;
75634;SDS011;64227;48.724;9.104;2023-01-04T05:11:31;1.42;;;0.70;;
75634;SDS011;64227;48.724;9.104;2023-01-04T05:14:15;0.95;;;0.80;;
75634;SDS011;64227;48.724;9.104;2023-01-04T05:16:41;0.90;;;0.52;;
75634;SDS011;64227;48.724;9.104;2023-01-04T05:19:06;1.40;;;1.15;;
75634;SDS011;64227;48.724;9.104;2023-01-04T05:21:31;1.83;;;1.20;;
75634;SDS011;64227;48.724;9.104;2023-01-04T05:23:57;0.60;;;0.60;;
75634;SDS011;64227;48.724;9.104;2023-01-04T05:26:22;1.20;;;0.77;;
75634;SDS011;64227;48.724;9.104;2023-01-04T05:28:47;1.38;;;1.00;;
75634;SDS011;64227;48.724;9.104;2023-01-04T05:31:13;1.63;;;1.00;;
75634;SDS011;64227;48.724;9.104;2023-01-04T05:33:38;1.70;;;0.90;;
75634;SDS011;64227;48.724;9.104;2023-01-04T05:36:04;1.30;;;0.82;;
75634;SDS011;64227;48.724;9.104;2023-01-04T05:38:29;0.70;;;0.68;;
75634;SDS011;64227;48.724;9.104;2023-01-04T05:40:54;1.30;;;0.80;;
75634;SDS011;64227;48.724;9.104;2023-01-04T05:43:20;1.02;;;0.73;;
75634;SDS011;64227;48.724;9.104;2023-01-04T05:45:47;2.00;;;1.25;;
75634;SDS011;64227;48.724;9.104;2023-01-04T05:48:14;2.13;;;1.20;;
75634;SDS011;64227;48.724;9.104;2023-01-04T05:50:39;1.80;;;0.95;;
75634;SDS011;64227;48.724;9.104;2023-01-04T05:53:05;1.65;;;0.93;;
75634;SDS011;64227;48.724;9.104;2023-01-04T05:55:31;1.98;;;0.93;;
75634;SDS011;64227;48.724;9.104;2023-01-04T05:57:57;2.20;;;0.90;;
75634;SDS011;64227;48.724;9.104;2023-01-04T06:00:22;0.80;;;0.60;;
75634;SDS011;64227;48.724;9.104;2023-01-04T06:02:47;1.20;;;1.00;;
75634;SDS011;64227;48.724;9.104;2023-01-04T06:05:13;2.08;;;1.25;;
75634;SDS011;64227;48.724;9.104;2023-01-04T06:07:38;1.52;;;1.00;;
75634;SDS011;64227;48.724;9.104;2023-01-04T06:10:07;0.95;;;0.80;;
75634;SDS011;64227;48.724;9.104;2023-01-04T06:12:34;0.90;;;0.60;;
75634;SDS011;64227;48.724;9.104;2023-01-04T06:14:59;2.70;;;0.90;;
75634;SDS011;64227;48.724;9.104;2023-01-04T06:17:25;1.17;;;0.82;;
75634;SDS011;64227;48.724;9.104;2023-01-04T06:19:50;2.10;;;1.10;;
75634;SDS011;64227;48.724;9.104;2023-01-04T06:22:15;1.08;;;0.75;;
75634;SDS011;64227;48.724;9.104;2023-01-04T06:24:40;0.80;;;0.80;;
75634;SDS011;64227;48.724;9.104;2023-01-04T06:27:06;1.25;;;0.80;;
75634;SDS011;64227;48.724;9.104;2023-01-04T06:29:31;0.73;;;0.73;;
75634;SDS011;64227;48.724;9.104;2023-01-04T06:31:56;1.27;;;0.90;;
75634;SDS011;64227;48.724;9.104;2023-01-04T06:34:22;1.63;;;0.93;;
75634;SDS011;64227;48.724;9.104;2023-01-04T06:36:47;3.30;;;1.07;;
75634;SDS011;64227;48.724;9.104;2023-01-04T06:39:12;2.35;;;0.88;;
75634;SDS011;64227;48.724;9.104;2023-01-04T06:41:38;1.10;;;0.70;;
75634;SDS011;64227;48.724;9.104;2023-01-04T06:44:03;0.82;;;0.70;;
75634;SDS011;64227;48.724;9.104;2023-01-04T06:46:28;2.15;;;0.85;;
75634;SDS011;64227;48.724;9.104;2023-01-04T06:48:54;0.88;;;0.80;;
75634;SDS011;64227;48.724;9.104;2023-01-04T06:51:20;2.53;;;0.85;;
75634;SDS011;64227;48.724;9.104;2023-01-04T06:53:45;1.25;;;0.75;;
75634;SDS011;64227;48.724;9.104;2023-01-04T06:56:10;0.63;;;0.60;;
75634;SDS011;64227;48.724;9.104;2023-01-04T06:58:36;1.38;;;0.55;;
75634;SDS011;64227;48.724;9.104;2023-01-04T07:01:02;1.08;;;0.77;;
75634;SDS011;64227;48.724;9.104;2023-01-04T07:03:27;1.27;;;0.90;;
75634;SDS011;64227;48.724;9.104;2023-01-04T07:05:52;1.37;;;0.70;;
75634;SDS011;64227;48.724;9.104;2023-01-04T07:08:18;2.35;;;0.60;;
75634;SDS011;64227;48.724;9.104;2023-01-04T07:10:43;1.13;;;0.60;;
75634;SDS011;64227;48.724;9.104;2023-01-04T07:13:09;0.95;;;0.77;;
75634;SDS011;64227;48.724;9.104;2023-01-04T07:15:34;1.13;;;0.55;;
75634;SDS011;64227;48.724;9.104;2023-01-04T07:18:00;1.30;;;0.70;;
75634;SDS011;64227;48.724;9.104;2023-01-04T07:20:25;2.03;;;0.73;;
75634;SDS011;64227;48.724;9.104;2023-01-04T07:22:51;0.90;;;0.60;;
75634;SDS011;64227;48.724;9.104;2023-01-04T07:25:16;1.08;;;0.70;;
75634;SDS011;64227;48.724;9.104;2023-01-04T07:27:41;0.98;;;0.75;;
75634;SDS011;64227;48.724;9.104;2023-01-04T07:30:07;1.23;;;0.73;;
75634;SDS011;64227;48.724;9.104;2023-01-04T07:32:33;2.28;;;0.63;;
75634;SDS011;64227;48.724;9.104;2023-01-04T07:34:58;2.17;;;1.02;;
75634;SDS011;64227;48.724;9.104;2023-01-04T07:37:23;2.38;;;1.10;;
75634;SDS011;64227;48.724;9.104;2023-01-04T07:39:48;3.50;;;0.75;;
75634;SDS011;64227;48.724;9.104;2023-01-04T07:42:14;1.67;;;0.90;;
75634;SDS011;64227;48.724;9.104;2023-01-04T07:44:39;0.95;;;0.70;;
75634;SDS011;64227;48.724;9.104;2023-01-04T07:47:04;1.02;;;0.63;;
75634;SDS011;64227;48.724;9.104;2023-01-04T07:49:30;1.95;;;0.85;;
75634;SDS011;64227;48.724;9.104;2023-01-04T07:51:55;3.38;;;0.77;;
75634;SDS011;64227;48.724;9.104;2023-01-04T07:54:20;0.70;;;0.50;;
75634;SDS011;64227;48.724;9.104;2023-01-04T07:56:48;0.98;;;0.50;;
75634;SDS011;64227;48.724;9.104;2023-01-04T07:59:14;1.35;;;0.40;;
75634;SDS011;64227;48.724;9.104;2023-01-04T08:01:40;0.32;;;0.20;;
75634;SDS011;64227;48.724;9.104;2023-01-04T08:04:06;0.70;;;0.50;;
75634;SDS011;64227;48.724;9.104;2023-01-04T08:06:32;0.22;;;0.22;;
75634;SDS011;64227;48.724;9.104;2023-01-04T08:08:58;0.95;;;0.45;;
75634;SDS011;64227;48.724;9.104;2023-01-04T08:11:24;1.08;;;0.40;;
75634;SDS011;64227;48.724;9.104;2023-01-04T08:13:49;0.68;;;0.28;;
75634;SDS011;64227;48.724;9.104;2023-01-04T08:18:57;0.60;;;0.30;;
75634;SDS011;64227;48.724;9.104;2023-01-04T08:21:24;0.50;;;0.28;;
75634;SDS011;64227;48.724;9.104;2023-01-04T08:23:50;0.63;;;0.47;;
75634;SDS011;64227;48.724;9.104;2023-01-04T08:26:16;0.35;;;0.30;;
75634;SDS011;64227;48.724;9.104;2023-01-04T08:28:42;0.43;;;0.20;;
75634;SDS011;64227;48.724;9.104;2023-01-04T08:31:09;1.15;;;0.50;;
75634;SDS011;64227;48.724;9.104;2023-01-04T08:33:39;0.30;;;0.20;;
75634;SDS011;64227;48.724;9.104;2023-01-04T08:38:50;0.28;;;0.25;;
75634;SDS011;64227;48.724;9.104;2023-01-04T08:41:16;0.40;;;0.30;;
75634;SDS011;64227;48.724;9.104;2023-01-04T08:43:42;0.43;;;0.30;;
75634;SDS011;64227;48.724;9.104;2023-01-04T08:46:08;0.40;;;0.30;;
75634;SDS011;64227;48.724;9.104;2023-01-04T08:48:34;0.70;;;0.40;;
75634;SDS011;64227;48.724;9.104;2023-01-04T08:51:01;0.80;;;0.32;;
75634;SDS011;64227;48.724;9.104;2023-01-04T08:53:27;0.55;;;0.40;;
75634;SDS011;64227;48.724;9.104;2023-01-04T08:55:53;0.93;;;0.60;;
75634;SDS011;64227;48.724;9.104;2023-01-04T08:58:19;1.65;;;1.00;;
75634;SDS011;64227;48.724;9.104;2023-01-04T09:00:45;3.20;;;1.52;;
75634;SDS011;64227;48.724;9.104;2023-01-04T09:03:11;3.35;;;2.22;;
75634;SDS011;64227;48.724;9.104;2023-01-04T09:05:36;10.00;;;6.05;;
75634;SDS011;64227;48.724;9.104;2023-01-04T09:08:02;5.47;;;3.30;;
75634;SDS011;64227;48.724;9.104;2023-01-04T09:10:27;4.30;;;2.00;;
75634;SDS011;64227;48.724;9.104;2023-01-04T09:12:53;3.92;;;2.20;;
75634;SDS011;64227;48.724;9.104;2023-01-04T09:15:18;2.57;;;1.10;;
75634;SDS011;64227;48.724;9.104;2023-01-04T09:17:43;14.57;;;7.15;;
75634;SDS011;64227;48.724;9.104;2023-01-04T09:20:09;5.95;;;3.03;;
75634;SDS011;64227;48.724;9.104;2023-01-04T09:22:34;4.57;;;2.60;;
75634;SDS011;64227;48.724;9.104;2023-01-04T09:25:00;3.72;;;2.20;;
75634;SDS011;64227;48.724;9.104;2023-01-04T09:27:25;2.35;;;1.20;;
75634;SDS011;64227;48.724;9.104;2023-01-04T09:29:50;0.77;;;0.70;;
75634;SDS011;64227;48.724;9.104;2023-01-04T09:32:16;1.83;;;1.42;;
75634;SDS011;64227;48.724;9.104;2023-01-04T09:34:41;1.02;;;0.85;;
75634;SDS011;64227;48.724;9.104;2023-01-04T09:37:07;2.15;;;0.50;;
75634;SDS011;64227;48.724;9.104;2023-01-04T09:39:32;2.50;;;0.85;;
75634;SDS011;64227;48.724;9.104;2023-01-04T09:41:58;0.32;;;0.32;;
75634;SDS011;64227;48.724;9.104;2023-01-04T09:44:43;3.65;;;0.68;;
75634;SDS011;64227;48.724;9.104;2023-01-04T09:47:14;0.52;;;0.52;;
75634;SDS011;64227;48.724;9.104;2023-01-04T09:49:57;0.60;;;0.35;;
75634;SDS011;64227;48.724;9.104;2023-01-04T09:52:27;1.00;;;0.47;;
75634;SDS011;64227;48.724;9.104;2023-01-04T09:55:15;0.60;;;0.35;;
75634;SDS011;64227;48.724;9.104;2023-01-04T09:57:56;1.52;;;0.52;;
75634;SDS011;64227;48.724;9.104;2023-01-04T10:00:27;0.73;;;0.45;;
75634;SDS011;64227;48.724;9.104;2023-01-04T10:02:56;0.57;;;0.35;;
75634;SDS011;64227;48.724;9.104;2023-01-04T10:05:25;1.05;;;0.47;;
75634;SDS011;64227;48.724;9.104;2023-01-04T10:07:52;0.38;;;0.30;;
75634;SDS011;64227;48.724;9.104;2023-01-04T10:10:20;0.25;;;0.25;;
75634;SDS011;64227;48.724;9.104;2023-01-04T10:12:59;1.15;;;0.35;;
75634;SDS011;64227;48.724;9.104;2023-01-04T10:16:00;1.05;;;0.50;;
75634;SDS011;64227;48.724;9.104;2023-01-04T10:22:23;1.63;;;0.60;;
75634;SDS011;64227;48.724;9.104;2023-01-04T10:32:42;0.75;;;0.40;;
75634;SDS011;64227;48.724;9.104;2023-01-04T10:35:26;0.50;;;0.43;;
75634;SDS011;64227;48.724;9.104;2023-01-04T10:37:59;1.10;;;0.57;;
75634;SDS011;64227;48.724;9.104;2023-01-04T10:40:26;1.88;;;0.35;;
75634;SDS011;64227;48.724;9.104;2023-01-04T10:42:56;0.35;;;0.30;;
75634;SDS011;64227;48.724;9.104;2023-01-04T10:45:39;0.77;;;0.50;;
75634;SDS011;64227;48.724;9.104;2023-01-04T10:53:32;0.60;;;0.60;;
75634;SDS011;64227;48.724;9.104;2023-01-04T10:58:47;1.25;;;0.30;;
75634;SDS011;64227;48.724;9.104;2023-01-04T11:01:16;1.25;;;0.57;;
75634;SDS011;64227;48.724;9.104;2023-01-04T11:06:28;2.78;;;0.40;;
75634;SDS011;64227;48.724;9.104;2023-01-04T11:09:06;2.95;;;0.77;;
75634;SDS011;64227;48.724;9.104;2023-01-04T11:11:37;0.52;;;0.20;;
75634;SDS011;64227;48.724;9.104;2023-01-04T11:14:06;0.52;;;0.30;;
75634;SDS011;64227;48.724;9.104;2023-01-04T11:16:31;0.65;;;0.40;;
75634;SDS011;64227;48.724;9.104;2023-01-04T11:18:57;1.65;;;0.32;;
75634;SDS011;64227;48.724;9.104;2023-01-04T11:21:25;1.85;;;0.30;;
75634;SDS011;64227;48.724;9.104;2023-01-04T11:23:55;0.63;;;0.40;;
75634;SDS011;64227;48.724;9.104;2023-01-04T11:26:24;0.40;;;0.40;;
75634;SDS011;64227;48.724;9.104;2023-01-04T11:28:59;1.17;;;0.20;;
75634;SDS011;64227;48.724;9.104;2023-01-04T11:31:36;0.40;;;0.30;;
75634;SDS011;64227;48.724;9.104;2023-01-04T11:34:42;0.43;;;0.30;;
75634;SDS011;64227;48.724;9.104;2023-01-04T11:37:22;0.88;;;0.40;;
75634;SDS011;64227;48.724;9.104;2023-01-04T11:39:48;1.42;;;0.30;;
75634;SDS011;64227;48.724;9.104;2023-01-04T11:42:18;1.27;;;0.35;;
75634;SDS011;64227;48.724;9.104;2023-01-04T11:44:45;0.35;;;0.22;;
75634;SDS011;64227;48.724;9.104;2023-01-04T11:47:22;2.65;;;0.40;;
75634;SDS011;64227;48.724;9.104;2023-01-04T11:49:49;2.00;;;0.50;;
75634;SDS011;64227;48.724;9.104;2023-01-04T11:52:34;0.47;;;0.30;;
75634;SDS011;64227;48.724;9.104;2023-01-04T11:55:22;0.93;;;0.43;;
75634;SDS011;64227;48.724;9.104;2023-01-04T11:58:10;1.60;;;0.65;;
75634;SDS011;64227;48.724;9.104;2023-01-04T12:00:38;1.25;;;0.47;;
75634;SDS011;64227;48.724;9.104;2023-01-04T12:03:10;0.20;;;0.20;;
75634;SDS011;64227;48.724;9.104;2023-01-04T12:05:36;2.38;;;0.52;;
75634;SDS011;64227;48.724;9.104;2023-01-04T12:08:02;1.85;;;0.73;;
75634;SDS011;64227;48.724;9.104;2023-01-04T12:10:28;0.95;;;0.28;;
75634;SDS011;64227;48.724;9.104;2023-01-04T12:12:54;0.73;;;0.43;;
75634;SDS011;64227;48.724;9.104;2023-01-04T12:15:45;1.15;;;0.50;;
75634;SDS011;64227;48.724;9.104;2023-01-04T12:18:18;0.95;;;0.40;;
75634;SDS011;64227;48.724;9.104;2023-01-04T12:20:59;0.73;;;0.30;;
75634;SDS011;64227;48.724;9.104;2023-01-04T12:23:25;0.45;;;0.40;;
75634;SDS011;64227;48.724;9.104;2023-01-04T12:25:51;0.57;;;0.40;;
75634;SDS011;64227;48.724;9.104;2023-01-04T12:28:34;1.77;;;0.50;;
75634;SDS011;64227;48.724;9.104;2023-01-04T12:36:11;1.00;;;0.52;;
75634;SDS011;64227;48.724;9.104;2023-01-04T12:41:19;0.50;;;0.30;;
75634;SDS011;64227;48.724;9.104;2023-01-04T12:43:45;1.80;;;0.88;;
75634;SDS011;64227;48.724;9.104;2023-01-04T13:02:23;1.40;;;0.40;;
75634;SDS011;64227;48.724;9.104;2023-01-04T13:04:49;0.90;;;0.40;;
75634;SDS011;64227;48.724;9.104;2023-01-04T13:07:38;0.98;;;0.45;;
75634;SDS011;64227;48.724;9.104;2023-01-04T13:18:21;1.75;;;0.50;;
75634;SDS011;64227;48.724;9.104;2023-01-04T13:21:00;0.52;;;0.45;;
75634;SDS011;64227;48.724;9.104;2023-01-04T13:23:34;0.77;;;0.50;;
75634;SDS011;64227;48.724;9.104;2023-01-04T13:26:25;1.25;;;0.38;;
75634;SDS011;64227;48.724;9.104;2023-01-04T13:29:03;0.88;;;0.30;;
75634;SDS011;64227;48.724;9.104;2023-01-04T13:34:15;0.63;;;0.30;;
75634;SDS011;64227;48.724;9.104;2023-01-04T13:36:42;1.33;;;0.30;;
75634;SDS011;64227;48.724;9.104;2023-01-04T13:39:09;0.30;;;0.30;;
75634;SDS011;64227;48.724;9.104;2023-01-04T13:41:35;0.22;;;0.20;;
75634;SDS011;64227;48.724;9.104;2023-01-04T13:44:03;0.57;;;0.30;;
75634;SDS011;64227;48.724;9.104;2023-01-04T13:46:34;1.55;;;0.30;;
75634;SDS011;64227;48.724;9.104;2023-01-04T13:49:00;0.75;;;0.20;;
75634;SDS011;64227;48.724;9.104;2023-01-04T13:51:27;1.52;;;0.20;;
75634;SDS011;64227;48.724;9.104;2023-01-04T13:53:58;0.50;;;0.25;;
75634;SDS011;64227;48.724;9.104;2023-01-04T13:56:27;1.25;;;0.20;;
75634;SDS011;64227;48.724;9.104;2023-01-04T13:58:54;0.20;;;0.20;;
75634;SDS011;64227;48.724;9.104;2023-01-04T14:03:56;0.35;;;0.20;;
75634;SDS011;64227;48.724;9.104;2023-01-04T14:06:33;0.52;;;0.10;;
75634;SDS011;64227;48.724;9.104;2023-01-04T14:09:04;0.22;;;0.22;;
75634;SDS011;64227;48.724;9.104;2023-01-04T14:11:47;0.57;;;0.40;;
75634;SDS011;64227;48.724;9.104;2023-01-04T14:19:59;0.32;;;0.22;;
75634;SDS011;64227;48.724;9.104;2023-01-04T14:22:27;2.78;;;0.28;;
75634;SDS011;64227;48.724;9.104;2023-01-04T14:25:01;0.20;;;0.17;;
75634;SDS011;64227;48.724;9.104;2023-01-04T14:30:41;0.30;;;0.30;;
75634;SDS011;64227;48.724;9.104;2023-01-04T14:33:14;0.10;;;0.10;;
75634;SDS011;64227;48.724;9.104;2023-01-04T14:35:42;0.40;;;0.20;;
75634;SDS011;64227;48.724;9.104;2023-01-04T14:38:12;2.30;;;0.32;;
75634;SDS011;64227;48.724;9.104;2023-01-04T14:40:42;0.43;;;0.40;;
75634;SDS011;64227;48.724;9.104;2023-01-04T14:45:56;1.13;;;0.25;;
75634;SDS011;64227;48.724;9.104;2023-01-04T14:48:22;1.05;;;0.20;;
75634;SDS011;64227;48.724;9.104;2023-01-04T14:50:47;0.68;;;0.30;;
75634;SDS011;64227;48.724;9.104;2023-01-04T14:53:15;0.50;;;0.30;;
75634;SDS011;64227;48.724;9.104;2023-01-04T14:55:43;1.13;;;0.50;;
75634;SDS011;64227;48.724;9.104;2023-01-04T14:58:08;0.20;;;0.20;;
75634;SDS011;64227;48.724;9.104;2023-01-04T15:00:34;2.47;;;0.40;;
75634;SDS011;64227;48.724;9.104;2023-01-04T15:02:59;1.70;;;0.30;;
75634;SDS011;64227;48.724;9.104;2023-01-04T15:05:24;0.90;;;0.20;;
75634;SDS011;64227;48.724;9.104;2023-01-04T15:07:49;2.92;;;0.63;;
75634;SDS011;64227;48.724;9.104;2023-01-04T15:10:23;0.98;;;0.30;;
75634;SDS011;64227;48.724;9.104;2023-01-04T15:12:50;0.30;;;0.20;;
75634;SDS011;64227;48.724;9.104;2023-01-04T15:15:15;0.28;;;0.28;;
75634;SDS011;64227;48.724;9.104;2023-01-04T15:17:41;0.50;;;0.20;;
75634;SDS011;64227;48.724;9.104;2023-01-04T15:20:06;0.85;;;0.47;;
75634;SDS011;64227;48.724;9.104;2023-01-04T15:22:32;2.92;;;0.30;;
75634;SDS011;64227;48.724;9.104;2023-01-04T15:24:58;0.65;;;0.20;;
75634;SDS011;64227;48.724;9.104;2023-01-04T15:27:23;0.63;;;0.30;;
75634;SDS011;64227;48.724;9.104;2023-01-04T15:29:48;0.20;;;0.20;;
75634;SDS011;64227;48.724;9.104;2023-01-04T15:32:14;0.93;;;0.20;;
75634;SDS011;64227;48.724;9.104;2023-01-04T15:34:39;0.73;;;0.40;;
75634;SDS011;64227;48.724;9.104;2023-01-04T15:37:04;0.63;;;0.50;;
75634;SDS011;64227;48.724;9.104;2023-01-04T15:39:29;1.92;;;0.40;;
75634;SDS011;64227;48.724;9.104;2023-01-04T15:41:55;0.70;;;0.45;;
75634;SDS011;64227;48.724;9.104;2023-01-04T15:44:39;1.13;;;0.40;;
75634;SDS011;64227;48.724;9.104;2023-01-04T15:47:04;2.42;;;0.50;;
75634;SDS011;64227;48.724;9.104;2023-01-04T15:49:30;0.38;;;0.20;;
75634;SDS011;64227;48.724;9.104;2023-01-04T15:51:55;0.60;;;0.35;;
75634;SDS011;64227;48.724;9.104;2023-01-04T15:54:23;0.20;;;0.20;;
75634;SDS011;64227;48.724;9.104;2023-01-04T15:56:49;0.75;;;0.45;;
75634;SDS011;64227;48.724;9.104;2023-01-04T15:59:14;0.65;;;0.40;;
75634;SDS011;64227;48.724;9.104;2023-01-04T16:01:40;0.80;;;0.32;;
75634;SDS011;64227;48.724;9.104;2023-01-04T16:04:06;0.50;;;0.25;;
75634;SDS011;64227;48.724;9.104;2023-01-04T16:06:32;0.52;;;0.30;;
75634;SDS011;64227;48.724;9.104;2023-01-04T16:08:57;0.22;;;0.20;;
75634;SDS011;64227;48.724;9.104;2023-01-04T16:11:23;0.25;;;0.25;;
75634;SDS011;64227;48.724;9.104;2023-01-04T16:13:49;0.32;;;0.32;;
75634;SDS011;64227;48.724;9.104;2023-01-04T16:16:16;0.70;;;0.65;;
75634;SDS011;64227;48.724;9.104;2023-01-04T16:18:49;1.85;;;0.60;;
75634;SDS011;64227;48.724;9.104;2023-01-04T16:21:15;1.25;;;0.30;;
75634;SDS011;64227;48.724;9.104;2023-01-04T16:23:47;0.40;;;0.30;;
75634;SDS011;64227;48.724;9.104;2023-01-04T16:26:13;1.75;;;0.43;;
75634;SDS011;64227;48.724;9.104;2023-01-04T16:28:39;0.20;;;0.20;;
75634;SDS011;64227;48.724;9.104;2023-01-04T16:31:04;1.73;;;0.45;;
75634;SDS011;64227;48.724;9.104;2023-01-04T16:33:30;0.80;;;0.40;;
75634;SDS011;64227;48.724;9.104;2023-01-04T16:36:06;0.38;;;0.30;;
75634;SDS011;64227;48.724;9.104;2023-01-04T16:38:37;0.40;;;0.30;;
75634;SDS011;64227;48.724;9.104;2023-01-04T16:41:04;0.80;;;0.30;;